createdAt,value
2023-05-14T00:07:58.356Z,101457.95000000001
2023-05-14T00:11:58.044Z,101449.41
2023-05-14T00:15:58.261Z,101445.58
2023-05-14T00:19:58.516Z,101443.87000000001
2023-05-14T00:23:58.227Z,101439.63
2023-05-14T00:27:58.178Z,101439.95
2023-05-14T00:31:58.265Z,101438.67
2023-05-14T00:35:58.198Z,101435.91
2023-05-14T00:39:58.549Z,101431.83
2023-05-14T00:43:58.134Z,101422.53
2023-05-14T00:55:58.585Z,101409.03
2023-05-14T00:59:58.555Z,101403.78
2023-05-14T01:03:58.953Z,101396.28
2023-05-14T01:08:07.073Z,101396.5
2023-05-14T01:12:07.819Z,101391.69
2023-05-14T01:15:59.719Z,101395.03
2023-05-14T01:19:59.402Z,101393.76999999999
2023-05-14T01:23:58.166Z,101393.25
2023-05-14T01:28:05.620Z,101392.03
2023-05-14T01:32:00.232Z,101391.09
2023-05-14T01:35:58.986Z,101384.45
2023-05-14T01:39:59.321Z,101383.29
2023-05-14T01:43:58.428Z,101377.94
2023-05-14T01:51:58.466Z,101378.28
2023-05-14T01:55:58.265Z,101373.06999999999
2023-05-14T01:59:58.455Z,101372.41
2023-05-14T02:15:58.573Z,101362.59999999999
2023-05-14T02:19:58.345Z,101361.31
2023-05-14T02:23:58.573Z,101354.78
2023-05-14T02:27:58.439Z,101346.74
2023-05-14T02:31:58.635Z,101342.74
2023-05-14T02:35:58.388Z,101340.3
2023-05-14T02:40:47.012Z,101339.83
2023-05-14T02:51:59.952Z,101335.6
2023-05-14T02:55:58.533Z,101329.38
2023-05-14T02:59:58.845Z,101329.54999999999
2023-05-14T03:07:58.755Z,101325.94
2023-05-14T03:11:59.591Z,101328.2
2023-05-14T03:19:58.883Z,101326.83
2023-05-14T03:23:58.531Z,101324.84
2023-05-14T03:27:58.684Z,101327.73
2023-05-14T03:31:58.670Z,101320.42
2023-05-14T03:35:58.678Z,101321.42
2023-05-14T03:39:58.578Z,101318.36
2023-05-14T03:43:58.868Z,101307.72
2023-05-14T03:47:58.708Z,101305.94
2023-05-14T03:59:58.859Z,101294.78
2023-05-14T04:03:58.824Z,101295.25
2023-05-14T04:11:58.947Z,101291.75
2023-05-14T04:15:58.683Z,101296.1
2023-05-14T04:19:58.891Z,101302.59
2023-05-14T04:23:58.700Z,101297.85
2023-05-14T04:27:58.846Z,101298.42
2023-05-14T04:31:58.843Z,101290.77
2023-05-14T04:35:58.966Z,101288.3
2023-05-14T04:39:59.936Z,101290.22
2023-05-14T04:44:00.569Z,101281.84
2023-05-14T04:47:59.026Z,101283.39
2023-05-14T04:51:59.064Z,101288.05
2023-05-14T04:55:58.796Z,101281.37000000001
2023-05-14T04:59:59.059Z,101285.72
2023-05-14T05:03:58.835Z,101286.61
2023-05-14T05:07:58.967Z,101282.18000000001
2023-05-14T05:12:00.518Z,101290.11
2023-05-14T05:15:59.021Z,101287.37999999999
2023-05-14T05:19:58.937Z,101286.6
2023-05-14T05:23:59.010Z,101280.76999999999
2023-05-14T05:27:58.940Z,101275.01999999999
2023-05-14T05:31:59.179Z,101274.67
2023-05-14T05:43:59.058Z,101273.6
2023-05-14T05:47:58.971Z,101260.67
2023-05-14T05:51:59.093Z,101258.91
2023-05-14T05:55:58.955Z,101262.22
2023-05-14T05:59:59.259Z,101262.45
2023-05-14T06:03:58.970Z,101258.45000000001
2023-05-14T06:07:59.124Z,101256.98
2023-05-14T06:11:58.981Z,101254.66
2023-05-14T06:15:59.299Z,101251.5
2023-05-14T06:23:59.241Z,101246.1
2023-05-14T06:27:59.219Z,101243.97
2023-05-14T06:32:01.718Z,101246.5
2023-05-14T06:35:59.919Z,101241.18
2023-05-14T06:43:59.370Z,101237.85
2023-05-14T06:47:59.163Z,101230.94
2023-05-14T06:51:59.741Z,101226.98000000001
2023-05-14T06:55:59.174Z,101227.26
2023-05-14T06:59:59.229Z,101227.45
2023-05-14T07:03:59.138Z,101229.28
2023-05-14T07:11:59.263Z,101232.51000000001
2023-05-14T07:15:59.437Z,101231.48
2023-05-14T07:19:59.478Z,101236.39
2023-05-14T07:23:59.255Z,101239.79000000001
2023-05-14T07:27:59.373Z,101241.88
2023-05-14T07:31:59.332Z,101238.67
2023-05-14T07:34:45.615Z,101238.67
2023-05-14T07:35:59.518Z,101238.53
2023-05-14T07:39:59.543Z,101238.21
2023-05-14T07:43:59.234Z,101232.4
2023-05-14T07:47:59.592Z,101228.88
2023-05-14T07:51:59.457Z,101226.88
2023-05-14T07:55:59.409Z,101217.96
2023-05-14T07:59:59.540Z,101213.13
2023-05-14T08:04:00.061Z,101215.45
2023-05-14T08:07:59.289Z,101213.42
2023-05-14T08:11:59.481Z,101207.61
2023-05-14T08:15:59.351Z,101202.35
2023-05-14T08:19:59.430Z,101206.92
2023-05-14T08:23:59.750Z,101212.15
2023-05-14T08:28:00.740Z,101206.86
2023-05-14T08:32:05.800Z,101217.66
2023-05-14T08:35:59.533Z,101208.8
2023-05-14T08:39:59.785Z,101209.45
2023-05-14T08:44:07.828Z,101206.48
2023-05-14T08:48:00.498Z,101189.03
2023-05-14T08:52:00.291Z,101198.53
2023-05-14T08:56:00.926Z,101192.5
2023-05-14T09:00:00.602Z,101188.98000000001
2023-05-14T09:04:00.492Z,101181.59000000001
2023-05-14T09:07:59.772Z,101176.95
2023-05-14T09:12:00.576Z,101183.28
2023-05-14T09:16:00.091Z,101183.24
2023-05-14T09:19:59.602Z,101188.05
2023-05-14T09:24:00.219Z,101174.15
2023-05-14T09:28:05.771Z,101174.17
2023-05-14T09:32:03.724Z,101172.45
2023-05-14T09:36:00.598Z,101165.66
2023-05-14T09:40:05.030Z,101158.18000000001
2023-05-14T09:44:01.084Z,101154.17
2023-05-14T09:47:59.999Z,101155.40999999999
2023-05-14T09:52:02.385Z,101155.57
2023-05-14T09:55:59.893Z,101155.02
2023-05-14T09:59:59.678Z,101157.98
2023-05-14T10:04:03.112Z,101166.85
2023-05-14T10:08:03.641Z,101164.85
2023-05-14T10:12:00.891Z,101155.68
2023-05-14T10:16:07.145Z,101154.96
2023-05-14T10:20:01.685Z,101152.14
2023-05-14T10:24:46.420Z,101153.17
2023-05-14T10:28:00.865Z,101151.37
2023-05-14T10:32:03.110Z,101147.14
2023-05-14T10:36:02.090Z,101148.53
2023-05-14T10:40:05.009Z,101138.62000000001
2023-05-14T10:44:08.403Z,101133.69
2023-05-14T10:47:59.984Z,101138.45
2023-05-14T10:52:00.997Z,101129.58
2023-05-14T10:56:03.447Z,101126.78
2023-05-14T11:00:00.326Z,101127.01
2023-05-14T11:04:02.614Z,101111.35
2023-05-14T11:08:03.528Z,101114.61
2023-05-14T11:11:59.842Z,101115.31
2023-05-14T11:16:08.806Z,101114.18
2023-05-14T11:19:59.916Z,101105.87000000001
2023-05-14T11:24:00.505Z,101098.49
2023-05-14T11:28:00.054Z,101097.29999999999
2023-05-14T11:32:01.080Z,101091.52
2023-05-14T11:35:59.958Z,101088.01
2023-05-14T11:40:00.717Z,101086.22
2023-05-14T11:43:59.967Z,101079.71
2023-05-14T11:48:00.119Z,101077.4
2023-05-14T11:52:01.291Z,101072.13
2023-05-14T11:56:02.128Z,101069.28
2023-05-14T12:00:00.213Z,101065.55
2023-05-14T12:04:00.454Z,101059.56
2023-05-14T12:08:00.029Z,101058.25
2023-05-14T12:12:08.094Z,101052.52
2023-05-14T12:16:01.161Z,101048.13
2023-05-14T12:20:00.125Z,101049.22
2023-05-14T12:24:00.390Z,101039.86
2023-05-14T12:28:00.210Z,101039.06
2023-05-14T12:32:03.002Z,101029.98999999999
2023-05-14T12:36:09.895Z,101031.7
2023-05-14T12:40:00.160Z,101029.07
2023-05-14T12:44:01.812Z,101025.44
2023-05-14T12:48:00.175Z,101019.31
2023-05-14T12:52:17.433Z,101015.44
2023-05-14T12:56:00.451Z,101015.22
2023-05-14T13:00:00.707Z,101004.1
2023-05-14T13:04:00.260Z,101000.41
2023-05-14T13:08:02.798Z,101000.33
2023-05-14T13:12:00.204Z,100990.19
2023-05-14T13:16:00.176Z,100979.02
2023-05-14T13:20:00.223Z,100974.89
2023-05-14T13:24:00.689Z,100965.63
2023-05-14T13:28:00.252Z,100969.23000000001
2023-05-14T13:32:00.432Z,100966.75
2023-05-14T13:36:00.457Z,100960.04000000001
2023-05-14T13:40:03.457Z,100951.87
2023-05-14T13:44:00.259Z,100946.62
2023-05-14T13:48:00.489Z,100939.75
2023-05-14T13:52:00.256Z,100946.62
2023-05-14T13:56:00.824Z,100942.22
2023-05-14T14:00:00.337Z,100938.64
2023-05-14T14:04:00.800Z,100938.62000000001
2023-05-14T14:08:04.362Z,100930.64
2023-05-14T14:12:01.988Z,100913.31
2023-05-14T14:16:02.068Z,100906.37000000001
2023-05-14T14:20:00.386Z,100901.81
2023-05-14T14:24:00.472Z,100892.67
2023-05-14T14:32:00.700Z,100882.93
2023-05-14T14:36:00.429Z,100886.51999999999
2023-05-14T14:40:00.772Z,100884.22
2023-05-14T14:44:01.869Z,100880.22
2023-05-14T14:52:00.484Z,100879.17
2023-05-14T14:56:01.330Z,100884.16
2023-05-14T15:00:02.358Z,100870.65
2023-05-14T15:04:00.815Z,100870.68000000001
2023-05-14T15:08:01.178Z,100869.69
2023-05-14T15:12:00.601Z,100865.16
2023-05-14T15:16:01.232Z,100862.28
2023-05-14T15:20:00.779Z,100854.13
2023-05-14T15:24:02.914Z,100847.63
2023-05-14T15:28:00.691Z,100847.47
2023-05-14T15:32:01.310Z,100841.52
2023-05-14T15:40:00.839Z,100838.37
2023-05-14T15:44:00.780Z,100840.59999999999
2023-05-14T15:48:00.933Z,100835.24
2023-05-14T15:52:01.816Z,100834.0
2023-05-14T15:56:01.853Z,100832.48
2023-05-14T16:00:03.168Z,100826.47
2023-05-14T16:04:00.957Z,100821.15
2023-05-14T16:08:01.001Z,100817.08
2023-05-14T16:12:01.156Z,100811.15999999999
2023-05-14T16:16:00.991Z,100808.54000000001
2023-05-14T16:20:03.842Z,100803.57
2023-05-14T16:24:00.960Z,100800.7
2023-05-14T16:28:01.045Z,100796.62
2023-05-14T16:32:01.171Z,100789.12
2023-05-14T16:36:01.084Z,100790.66
2023-05-14T16:40:00.966Z,100789.4
2023-05-14T16:44:01.296Z,100787.09
2023-05-14T16:48:01.186Z,100793.14
2023-05-14T16:52:01.223Z,100793.62999999999
2023-05-14T16:56:01.150Z,100787.09
2023-05-14T17:00:05.044Z,100784.40000000001
2023-05-14T17:04:00.960Z,100782.12
2023-05-14T17:08:01.154Z,100788.06
2023-05-14T17:12:00.985Z,100786.7
2023-05-14T17:16:01.275Z,100781.72
2023-05-14T17:20:01.120Z,100783.24
2023-05-14T17:24:01.188Z,100777.14
2023-05-14T17:28:01.287Z,100773.01999999999
2023-05-14T17:32:02.474Z,100772.17000000001
2023-05-14T17:36:00.968Z,100765.66
2023-05-14T17:40:01.081Z,100764.09
2023-05-14T17:44:00.906Z,100767.76
2023-05-14T17:48:01.318Z,100766.27
2023-05-14T17:52:01.565Z,100765.78
2023-05-14T17:56:01.096Z,100764.09
2023-05-14T18:00:01.013Z,100764.28
2023-05-14T18:04:01.405Z,100768.22
2023-05-14T18:08:01.096Z,100766.90999999999
2023-05-14T18:12:01.439Z,100765.32999999999
2023-05-14T18:16:01.089Z,100768.4
2023-05-14T18:20:01.260Z,100766.69
2023-05-14T18:24:01.153Z,100770.45000000001
2023-05-14T18:28:01.131Z,100768.03
2023-05-14T18:32:01.071Z,100766.94
2023-05-14T18:36:01.665Z,100763.48000000001
2023-05-14T18:40:01.339Z,100764.56
2023-05-14T18:44:01.466Z,100762.81
2023-05-14T18:48:01.338Z,100764.72
2023-05-14T18:52:01.354Z,100765.52
2023-05-14T18:56:01.307Z,100765.52
2023-05-14T19:00:01.948Z,100759.36
2023-05-14T19:04:03.776Z,100756.84
2023-05-14T19:08:01.354Z,100758.88
2023-05-14T19:12:01.443Z,100758.92
2023-05-14T19:16:01.664Z,100756.56
2023-05-14T19:20:01.211Z,100722.5
2023-05-14T19:24:01.472Z,100756.7
2023-05-14T19:28:02.692Z,100759.03
2023-05-14T19:32:01.606Z,100765.31999999999
2023-05-14T19:36:01.303Z,100763.25
2023-05-14T19:40:01.616Z,100763.62000000001
2023-05-14T19:44:01.316Z,100763.14
2023-05-14T19:48:01.461Z,100762.57
2023-05-14T19:52:01.429Z,100762.64
2023-05-14T19:56:01.561Z,100763.01
2023-05-14T20:00:01.337Z,100767.21
2023-05-14T20:04:01.638Z,100769.2
2023-05-14T20:08:02.805Z,100762.75
2023-05-14T20:12:01.430Z,100763.09
2023-05-14T20:16:02.011Z,100760.49
2023-05-14T20:19:17.386Z,100760.49
2023-05-14T20:20:01.369Z,100758.84
2023-05-14T20:24:01.816Z,100756.28
2023-05-14T20:28:01.652Z,100758.34
2023-05-14T20:32:01.521Z,100754.66
2023-05-14T20:36:03.396Z,100751.47
2023-05-14T20:40:03.701Z,100754.08
2023-05-14T20:44:01.986Z,100755.11
2023-05-14T20:48:01.561Z,100758.93
2023-05-14T20:52:01.744Z,100759.41
2023-05-14T20:56:01.509Z,100757.64
2023-05-14T21:00:03.442Z,100756.8
2023-05-14T21:04:02.264Z,100756.17
2023-05-14T21:08:01.733Z,100759.34
2023-05-14T21:12:01.522Z,100755.75
2023-05-14T21:16:01.962Z,100751.59
2023-05-14T21:20:01.652Z,100753.56
2023-05-14T21:24:02.305Z,100754.94
2023-05-14T21:28:01.608Z,100752.78
2023-05-14T21:32:02.122Z,100752.19
2023-05-14T21:36:02.117Z,100753.92
2023-05-14T21:40:01.810Z,100755.83
2023-05-14T21:44:01.599Z,100761.33
2023-05-14T21:48:01.829Z,100752.37
2023-05-14T21:52:02.343Z,100751.62
2023-05-14T21:56:01.821Z,100747.77
2023-05-14T22:00:02.865Z,100749.17
2023-05-14T22:04:01.968Z,100750.55
2023-05-14T22:08:01.708Z,100750.89
2023-05-14T22:12:02.064Z,100752.58
2023-05-14T22:16:12.128Z,100753.0
2023-05-14T22:20:04.561Z,100759.17
2023-05-14T22:24:01.805Z,100758.37
2023-05-14T22:28:01.855Z,100755.67
2023-05-14T22:32:02.476Z,100760.51999999999
2023-05-14T22:36:02.604Z,100763.98000000001
2023-05-14T22:40:04.110Z,100761.25
2023-05-14T22:44:01.849Z,100755.55
2023-05-14T22:52:02.304Z,100758.4
2023-05-14T23:00:03.495Z,100758.23000000001
2023-05-14T23:04:02.122Z,100760.05
2023-05-14T23:08:02.722Z,100753.99
2023-05-14T23:12:01.895Z,100751.0
2023-05-14T23:16:02.808Z,100755.58
2023-05-14T23:20:03.910Z,100752.06
2023-05-14T23:24:02.062Z,100752.25
2023-05-14T23:28:02.067Z,100761.69
2023-05-14T23:32:02.348Z,100760.19
2023-05-14T23:36:02.345Z,100754.1
2023-05-14T23:40:03.723Z,100756.58
2023-05-14T23:44:02.861Z,100755.47
2023-05-14T23:48:02.743Z,100751.51
2023-05-14T23:52:02.078Z,100753.94
2023-05-14T23:56:02.315Z,100754.90999999999
